sensor_id;sensor_type;location;lat;lon;timestamp;temperature;humidity
44990;DHT22;30723;51.206;3.326;2022-11-03T00:02:14;13.10;99.90
44990;DHT22;30723;51.206;3.326;2022-11-03T00:04:40;13.00;99.90
44990;DHT22;30723;51.206;3.326;2022-11-03T00:07:07;13.00;99.90
44990;DHT22;30723;51.206;3.326;2022-11-03T00:09:34;13.00;99.90
44990;DHT22;30723;51.206;3.326;2022-11-03T00:12:00;13.00;99.90
44990;DHT22;30723;51.206;3.326;2022-11-03T00:14:27;13.00;99.90
44990;DHT22;30723;51.206;3.326;2022-11-03T00:16:54;13.00;99.90
44990;DHT22;30723;51.206;3.326;2022-11-03T00:19:20;13.00;99.90
44990;DHT22;30723;51.206;3.326;2022-11-03T00:21:47;13.00;99.90
44990;DHT22;30723;51.206;3.326;2022-11-03T00:24:14;13.00;99.90
44990;DHT22;30723;51.206;3.326;2022-11-03T00:26:40;13.00;99.90
44990;DHT22;30723;51.206;3.326;2022-11-03T00:29:11;12.90;99.90
44990;DHT22;30723;51.206;3.326;2022-11-03T00:31:38;12.90;99.90
44990;DHT22;30723;51.206;3.326;2022-11-03T00:34:06;13.00;99.90
44990;DHT22;30723;51.206;3.326;2022-11-03T00:36:35;12.90;99.90
44990;DHT22;30723;51.206;3.326;2022-11-03T00:39:03;12.90;99.90
44990;DHT22;30723;51.206;3.326;2022-11-03T00:41:30;12.90;99.90
44990;DHT22;30723;51.206;3.326;2022-11-03T00:43:57;12.80;99.90
44990;DHT22;30723;51.206;3.326;2022-11-03T00:46:24;12.90;99.90
44990;DHT22;30723;51.206;3.326;2022-11-03T00:48:52;12.90;99.90
44990;DHT22;30723;51.206;3.326;2022-11-03T00:51:37;12.90;99.90
44990;DHT22;30723;51.206;3.326;2022-11-03T00:54:05;12.90;99.90
44990;DHT22;30723;51.206;3.326;2022-11-03T00:56:37;12.90;99.90
44990;DHT22;30723;51.206;3.326;2022-11-03T00:59:06;12.90;99.90
44990;DHT22;30723;51.206;3.326;2022-11-03T01:01:40;13.00;99.90
44990;DHT22;30723;51.206;3.326;2022-11-03T01:04:08;13.00;99.90
44990;DHT22;30723;51.206;3.326;2022-11-03T01:06:54;13.00;99.90
44990;DHT22;30723;51.206;3.326;2022-11-03T01:09:29;13.10;99.90
44990;DHT22;30723;51.206;3.326;2022-11-03T01:12:08;13.00;99.90
44990;DHT22;30723;51.206;3.326;2022-11-03T01:14:42;13.00;99.90
44990;DHT22;30723;51.206;3.326;2022-11-03T01:17:11;13.10;99.90
44990;DHT22;30723;51.206;3.326;2022-11-03T01:19:38;13.10;99.90
44990;DHT22;30723;51.206;3.326;2022-11-03T01:22:05;13.10;99.90
44990;DHT22;30723;51.206;3.326;2022-11-03T01:24:33;13.10;99.90
44990;DHT22;30723;51.206;3.326;2022-11-03T01:27:00;13.10;99.90
44990;DHT22;30723;51.206;3.326;2022-11-03T01:29:27;13.20;99.90
44990;DHT22;30723;51.206;3.326;2022-11-03T01:31:53;13.20;99.90
44990;DHT22;30723;51.206;3.326;2022-11-03T01:34:21;13.20;99.90
44990;DHT22;30723;51.206;3.326;2022-11-03T01:36:48;13.30;99.90
44990;DHT22;30723;51.206;3.326;2022-11-03T01:39:17;13.30;99.90
44990;DHT22;30723;51.206;3.326;2022-11-03T01:41:46;13.30;99.90
44990;DHT22;30723;51.206;3.326;2022-11-03T01:49:37;13.20;99.90
44990;DHT22;30723;51.206;3.326;2022-11-03T01:54:46;13.20;99.90
44990;DHT22;30723;51.206;3.326;2022-11-03T01:57:18;13.20;99.90
44990;DHT22;30723;51.206;3.326;2022-11-03T01:59:46;13.20;99.90
44990;DHT22;30723;51.206;3.326;2022-11-03T02:02:12;13.20;99.90
44990;DHT22;30723;51.206;3.326;2022-11-03T02:04:39;13.20;99.90
44990;DHT22;30723;51.206;3.326;2022-11-03T02:07:22;13.20;99.90
44990;DHT22;30723;51.206;3.326;2022-11-03T02:09:50;13.20;99.90
44990;DHT22;30723;51.206;3.326;2022-11-03T02:12:17;13.20;99.90
44990;DHT22;30723;51.206;3.326;2022-11-03T02:15:11;13.20;99.90
44990;DHT22;30723;51.206;3.326;2022-11-03T02:17:40;13.10;99.90
44990;DHT22;30723;51.206;3.326;2022-11-03T02:20:16;13.10;99.90
44990;DHT22;30723;51.206;3.326;2022-11-03T02:23:03;13.10;99.90
44990;DHT22;30723;51.206;3.326;2022-11-03T02:25:47;13.20;99.90
44990;DHT22;30723;51.206;3.326;2022-11-03T02:28:19;13.20;99.90
44990;DHT22;30723;51.206;3.326;2022-11-03T02:33:59;13.10;99.90
44990;DHT22;30723;51.206;3.326;2022-11-03T02:40:07;13.20;99.90
44990;DHT22;30723;51.206;3.326;2022-11-03T02:42:36;13.20;99.90
44990;DHT22;30723;51.206;3.326;2022-11-03T02:45:06;13.20;99.90
44990;DHT22;30723;51.206;3.326;2022-11-03T02:47:36;13.10;99.90
44990;DHT22;30723;51.206;3.326;2022-11-03T02:50:07;13.10;99.90
44990;DHT22;30723;51.206;3.326;2022-11-03T02:52:44;13.20;99.90
44990;DHT22;30723;51.206;3.326;2022-11-03T02:58:05;13.20;99.90
44990;DHT22;30723;51.206;3.326;2022-11-03T03:00:45;13.20;99.90
44990;DHT22;30723;51.206;3.326;2022-11-03T03:03:34;13.20;99.90
44990;DHT22;30723;51.206;3.326;2022-11-03T03:06:07;13.30;99.90
44990;DHT22;30723;51.206;3.326;2022-11-03T03:08:38;13.30;99.90
44990;DHT22;30723;51.206;3.326;2022-11-03T03:11:08;13.30;99.90
44990;DHT22;30723;51.206;3.326;2022-11-03T03:13:37;13.30;99.90
44990;DHT22;30723;51.206;3.326;2022-11-03T03:16:30;13.30;99.90
44990;DHT22;30723;51.206;3.326;2022-11-03T03:19:21;13.40;99.90
44990;DHT22;30723;51.206;3.326;2022-11-03T03:21:53;13.40;99.90
44990;DHT22;30723;51.206;3.326;2022-11-03T03:24:47;13.40;99.90
44990;DHT22;30723;51.206;3.326;2022-11-03T03:27:15;13.30;99.90
44990;DHT22;30723;51.206;3.326;2022-11-03T03:29:49;13.30;99.90
44990;DHT22;30723;51.206;3.326;2022-11-03T03:32:19;13.40;99.90
44990;DHT22;30723;51.206;3.326;2022-11-03T03:34:47;13.40;99.90
44990;DHT22;30723;51.206;3.326;2022-11-03T03:37:16;13.40;99.90
44990;DHT22;30723;51.206;3.326;2022-11-03T03:39:50;13.40;99.90
44990;DHT22;30723;51.206;3.326;2022-11-03T03:42:19;13.40;99.90
44990;DHT22;30723;51.206;3.326;2022-11-03T03:44:46;13.40;99.90
44990;DHT22;30723;51.206;3.326;2022-11-03T03:47:35;13.50;99.90
44990;DHT22;30723;51.206;3.326;2022-11-03T03:50:02;13.50;99.90
44990;DHT22;30723;51.206;3.326;2022-11-03T03:52:29;13.50;99.90
44990;DHT22;30723;51.206;3.326;2022-11-03T03:54:58;13.50;99.90
44990;DHT22;30723;51.206;3.326;2022-11-03T03:57:28;13.50;99.90
44990;DHT22;30723;51.206;3.326;2022-11-03T03:59:55;13.40;99.90
44990;DHT22;30723;51.206;3.326;2022-11-03T04:02:21;13.50;99.90
44990;DHT22;30723;51.206;3.326;2022-11-03T04:04:47;13.50;99.90
44990;DHT22;30723;51.206;3.326;2022-11-03T04:07:14;13.50;99.90
44990;DHT22;30723;51.206;3.326;2022-11-03T04:09:59;13.40;99.90
44990;DHT22;30723;51.206;3.326;2022-11-03T04:12:25;13.40;99.90
44990;DHT22;30723;51.206;3.326;2022-11-03T04:15:13;13.40;99.90
44990;DHT22;30723;51.206;3.326;2022-11-03T04:17:58;13.40;99.90
44990;DHT22;30723;51.206;3.326;2022-11-03T04:20:59;13.40;99.90
44990;DHT22;30723;51.206;3.326;2022-11-03T04:23:44;13.40;99.90
44990;DHT22;30723;51.206;3.326;2022-11-03T04:26:19;13.40;99.90
44990;DHT22;30723;51.206;3.326;2022-11-03T04:28:49;13.40;99.90
44990;DHT22;30723;51.206;3.326;2022-11-03T04:31:18;13.40;99.90
44990;DHT22;30723;51.206;3.326;2022-11-03T04:33:46;13.40;99.90
44990;DHT22;30723;51.206;3.326;2022-11-03T04:36:22;13.40;99.90
44990;DHT22;30723;51.206;3.326;2022-11-03T04:38:50;13.40;99.90
44990;DHT22;30723;51.206;3.326;2022-11-03T04:41:28;13.30;99.90
44990;DHT22;30723;51.206;3.326;2022-11-03T04:43:57;13.40;99.90
44990;DHT22;30723;51.206;3.326;2022-11-03T04:46:28;13.30;99.90
44990;DHT22;30723;51.206;3.326;2022-11-03T04:48:57;13.30;99.90
44990;DHT22;30723;51.206;3.326;2022-11-03T04:51:27;13.30;99.90
44990;DHT22;30723;51.206;3.326;2022-11-03T04:54:01;13.30;99.90
44990;DHT22;30723;51.206;3.326;2022-11-03T04:56:29;13.30;99.90
44990;DHT22;30723;51.206;3.326;2022-11-03T04:58:56;13.30;99.90
44990;DHT22;30723;51.206;3.326;2022-11-03T05:01:23;13.30;99.90
44990;DHT22;30723;51.206;3.326;2022-11-03T05:03:52;13.30;99.90
44990;DHT22;30723;51.206;3.326;2022-11-03T05:06:26;13.40;99.90
44990;DHT22;30723;51.206;3.326;2022-11-03T05:08:55;13.30;99.90
44990;DHT22;30723;51.206;3.326;2022-11-03T05:11:37;13.40;99.90
44990;DHT22;30723;51.206;3.326;2022-11-03T05:14:14;13.40;99.90
44990;DHT22;30723;51.206;3.326;2022-11-03T05:16:41;13.40;99.90
44990;DHT22;30723;51.206;3.326;2022-11-03T05:19:33;13.40;99.90
44990;DHT22;30723;51.206;3.326;2022-11-03T05:22:03;13.40;99.90
44990;DHT22;30723;51.206;3.326;2022-11-03T05:24:31;13.40;99.90
44990;DHT22;30723;51.206;3.326;2022-11-03T05:26:58;13.40;99.90
44990;DHT22;30723;51.206;3.326;2022-11-03T05:29:47;13.50;99.90
44990;DHT22;30723;51.206;3.326;2022-11-03T05:32:21;13.50;99.90
44990;DHT22;30723;51.206;3.326;2022-11-03T05:35:11;13.50;99.90
44990;DHT22;30723;51.206;3.326;2022-11-03T05:37:44;13.50;99.90
44990;DHT22;30723;51.206;3.326;2022-11-03T05:40:24;13.40;99.90
44990;DHT22;30723;51.206;3.326;2022-11-03T05:43:12;13.50;99.90
44990;DHT22;30723;51.206;3.326;2022-11-03T05:45:39;13.40;99.90
44990;DHT22;30723;51.206;3.326;2022-11-03T05:50:46;13.40;99.90
44990;DHT22;30723;51.206;3.326;2022-11-03T05:53:18;13.50;99.90
44990;DHT22;30723;51.206;3.326;2022-11-03T05:55:48;13.50;99.90
44990;DHT22;30723;51.206;3.326;2022-11-03T05:58:30;13.50;99.90
44990;DHT22;30723;51.206;3.326;2022-11-03T06:01:00;13.50;99.90
44990;DHT22;30723;51.206;3.326;2022-11-03T06:03:29;13.50;99.90
44990;DHT22;30723;51.206;3.326;2022-11-03T06:05:57;13.50;99.90
44990;DHT22;30723;51.206;3.326;2022-11-03T06:08:34;13.50;99.90
44990;DHT22;30723;51.206;3.326;2022-11-03T06:11:02;13.50;99.90
44990;DHT22;30723;51.206;3.326;2022-11-03T06:13:36;13.50;99.90
44990;DHT22;30723;51.206;3.326;2022-11-03T06:18:50;13.50;99.90
44990;DHT22;30723;51.206;3.326;2022-11-03T06:21:20;13.50;99.90
44990;DHT22;30723;51.206;3.326;2022-11-03T06:23:48;13.50;99.90
44990;DHT22;30723;51.206;3.326;2022-11-03T06:26:21;13.60;99.90
44990;DHT22;30723;51.206;3.326;2022-11-03T06:28:48;13.50;99.90
44990;DHT22;30723;51.206;3.326;2022-11-03T06:31:22;13.50;99.90
44990;DHT22;30723;51.206;3.326;2022-11-03T06:33:50;13.50;99.90
44990;DHT22;30723;51.206;3.326;2022-11-03T06:36:26;13.40;99.90
44990;DHT22;30723;51.206;3.326;2022-11-03T06:39:22;13.50;99.90
44990;DHT22;30723;51.206;3.326;2022-11-03T06:41:49;13.40;99.90
44990;DHT22;30723;51.206;3.326;2022-11-03T06:44:26;13.50;99.90
44990;DHT22;30723;51.206;3.326;2022-11-03T06:47:18;13.50;99.90
44990;DHT22;30723;51.206;3.326;2022-11-03T06:49:46;13.50;99.90
44990;DHT22;30723;51.206;3.326;2022-11-03T06:52:30;13.50;99.90
44990;DHT22;30723;51.206;3.326;2022-11-03T06:57:41;13.60;99.90
44990;DHT22;30723;51.206;3.326;2022-11-03T07:03:05;13.60;99.90
44990;DHT22;30723;51.206;3.326;2022-11-03T07:05:34;13.60;99.90
44990;DHT22;30723;51.206;3.326;2022-11-03T07:08:03;13.60;99.90
44990;DHT22;30723;51.206;3.326;2022-11-03T07:10:35;13.60;99.90
44990;DHT22;30723;51.206;3.326;2022-11-03T07:13:12;13.60;99.90
44990;DHT22;30723;51.206;3.326;2022-11-03T07:15:42;13.60;99.90
44990;DHT22;30723;51.206;3.326;2022-11-03T07:20:43;13.70;99.90
44990;DHT22;30723;51.206;3.326;2022-11-03T07:23:14;13.70;99.90
44990;DHT22;30723;51.206;3.326;2022-11-03T07:25:41;13.70;99.90
44990;DHT22;30723;51.206;3.326;2022-11-03T07:28:10;13.70;99.90
44990;DHT22;30723;51.206;3.326;2022-11-03T07:30:36;13.70;99.90
44990;DHT22;30723;51.206;3.326;2022-11-03T07:33:21;13.70;99.90
44990;DHT22;30723;51.206;3.326;2022-11-03T07:35:49;13.80;99.90
44990;DHT22;30723;51.206;3.326;2022-11-03T07:38:21;13.80;99.90
44990;DHT22;30723;51.206;3.326;2022-11-03T07:40:49;13.70;99.90
44990;DHT22;30723;51.206;3.326;2022-11-03T07:43:29;13.80;99.90
44990;DHT22;30723;51.206;3.326;2022-11-03T07:45:59;13.80;99.90
44990;DHT22;30723;51.206;3.326;2022-11-03T07:48:47;13.80;99.90
44990;DHT22;30723;51.206;3.326;2022-11-03T07:51:19;13.90;99.90
44990;DHT22;30723;51.206;3.326;2022-11-03T07:53:49;13.90;99.90
44990;DHT22;30723;51.206;3.326;2022-11-03T07:56:24;13.90;99.90
44990;DHT22;30723;51.206;3.326;2022-11-03T08:02:30;14.00;99.90
44990;DHT22;30723;51.206;3.326;2022-11-03T08:04:56;14.00;99.90
44990;DHT22;30723;51.206;3.326;2022-11-03T08:07:43;14.00;99.90
44990;DHT22;30723;51.206;3.326;2022-11-03T08:10:28;14.00;99.90
44990;DHT22;30723;51.206;3.326;2022-11-03T08:13:14;14.00;99.90
44990;DHT22;30723;51.206;3.326;2022-11-03T08:15:40;14.10;99.90
44990;DHT22;30723;51.206;3.326;2022-11-03T08:18:25;14.20;99.90
44990;DHT22;30723;51.206;3.326;2022-11-03T08:21:11;14.20;99.90
44990;DHT22;30723;51.206;3.326;2022-11-03T08:23:57;14.30;99.90
44990;DHT22;30723;51.206;3.326;2022-11-03T08:26:43;14.30;99.90
44990;DHT22;30723;51.206;3.326;2022-11-03T08:29:28;14.30;99.90
44990;DHT22;30723;51.206;3.326;2022-11-03T08:32:14;14.40;99.90
44990;DHT22;30723;51.206;3.326;2022-11-03T08:35:00;14.40;99.90
44990;DHT22;30723;51.206;3.326;2022-11-03T08:37:45;14.30;99.90
44990;DHT22;30723;51.206;3.326;2022-11-03T08:40:31;14.40;99.90
44990;DHT22;30723;51.206;3.326;2022-11-03T08:43:17;14.50;99.90
44990;DHT22;30723;51.206;3.326;2022-11-03T08:46:02;14.50;99.90
44990;DHT22;30723;51.206;3.326;2022-11-03T08:48:48;14.50;99.90
44990;DHT22;30723;51.206;3.326;2022-11-03T08:51:15;14.50;99.90
44990;DHT22;30723;51.206;3.326;2022-11-03T08:54:00;14.40;99.90
44990;DHT22;30723;51.206;3.326;2022-11-03T08:56:46;14.40;99.90
44990;DHT22;30723;51.206;3.326;2022-11-03T08:59:13;14.50;99.90
44990;DHT22;30723;51.206;3.326;2022-11-03T09:01:39;14.50;99.90
44990;DHT22;30723;51.206;3.326;2022-11-03T09:04:05;14.50;99.90
44990;DHT22;30723;51.206;3.326;2022-11-03T09:06:32;14.50;99.90
44990;DHT22;30723;51.206;3.326;2022-11-03T09:08:58;14.60;99.90
44990;DHT22;30723;51.206;3.326;2022-11-03T09:11:24;14.50;99.90
44990;DHT22;30723;51.206;3.326;2022-11-03T09:13:51;14.60;99.90
44990;DHT22;30723;51.206;3.326;2022-11-03T09:16:17;14.60;99.90
44990;DHT22;30723;51.206;3.326;2022-11-03T09:18:43;14.60;99.90
44990;DHT22;30723;51.206;3.326;2022-11-03T09:21:10;14.70;99.90
44990;DHT22;30723;51.206;3.326;2022-11-03T09:23:37;14.70;99.90
44990;DHT22;30723;51.206;3.326;2022-11-03T09:26:02;14.80;99.90
44990;DHT22;30723;51.206;3.326;2022-11-03T09:28:31;14.90;99.90
44990;DHT22;30723;51.206;3.326;2022-11-03T09:30:57;14.90;99.90
44990;DHT22;30723;51.206;3.326;2022-11-03T09:33:24;15.00;99.90
44990;DHT22;30723;51.206;3.326;2022-11-03T09:35:49;15.00;99.90
44990;DHT22;30723;51.206;3.326;2022-11-03T09:38:16;15.00;99.90
44990;DHT22;30723;51.206;3.326;2022-11-03T09:40:43;15.00;99.90
44990;DHT22;30723;51.206;3.326;2022-11-03T09:43:10;15.00;99.90
44990;DHT22;30723;51.206;3.326;2022-11-03T09:45:38;15.00;99.90
44990;DHT22;30723;51.206;3.326;2022-11-03T09:48:08;15.00;99.90
44990;DHT22;30723;51.206;3.326;2022-11-03T09:50:35;15.10;99.90
44990;DHT22;30723;51.206;3.326;2022-11-03T09:53:01;15.10;99.90
44990;DHT22;30723;51.206;3.326;2022-11-03T09:55:28;15.20;99.90
44990;DHT22;30723;51.206;3.326;2022-11-03T09:58:04;15.20;99.90
44990;DHT22;30723;51.206;3.326;2022-11-03T10:00:35;15.20;99.90
44990;DHT22;30723;51.206;3.326;2022-11-03T10:03:03;15.20;99.90
44990;DHT22;30723;51.206;3.326;2022-11-03T10:05:29;15.20;99.90
44990;DHT22;30723;51.206;3.326;2022-11-03T10:08:04;15.30;99.90
44990;DHT22;30723;51.206;3.326;2022-11-03T10:10:31;15.40;99.90
44990;DHT22;30723;51.206;3.326;2022-11-03T10:13:00;15.40;99.90
44990;DHT22;30723;51.206;3.326;2022-11-03T10:15:27;15.40;99.90
44990;DHT22;30723;51.206;3.326;2022-11-03T10:17:55;15.40;99.90
44990;DHT22;30723;51.206;3.326;2022-11-03T10:20:22;15.20;99.90
44990;DHT22;30723;51.206;3.326;2022-11-03T10:22:52;15.20;99.90
44990;DHT22;30723;51.206;3.326;2022-11-03T10:25:42;15.20;99.90
44990;DHT22;30723;51.206;3.326;2022-11-03T10:28:15;15.20;99.90
44990;DHT22;30723;51.206;3.326;2022-11-03T10:31:03;15.30;99.90
44990;DHT22;30723;51.206;3.326;2022-11-03T10:33:36;15.40;99.90
44990;DHT22;30723;51.206;3.326;2022-11-03T10:38:43;15.50;99.90
44990;DHT22;30723;51.206;3.326;2022-11-03T10:43:59;15.70;99.90
44990;DHT22;30723;51.206;3.326;2022-11-03T10:46:26;15.70;99.90
44990;DHT22;30723;51.206;3.326;2022-11-03T10:49:04;15.90;99.90
44990;DHT22;30723;51.206;3.326;2022-11-03T10:51:32;15.90;99.90
44990;DHT22;30723;51.206;3.326;2022-11-03T10:54:00;15.90;99.90
44990;DHT22;30723;51.206;3.326;2022-11-03T10:56:27;15.90;99.90
44990;DHT22;30723;51.206;3.326;2022-11-03T10:58:55;15.90;99.90
44990;DHT22;30723;51.206;3.326;2022-11-03T11:01:22;16.00;99.90
44990;DHT22;30723;51.206;3.326;2022-11-03T11:03:49;16.50;99.90
44990;DHT22;30723;51.206;3.326;2022-11-03T11:06:35;17.30;99.90
44990;DHT22;30723;51.206;3.326;2022-11-03T11:09:03;18.10;99.90
44990;DHT22;30723;51.206;3.326;2022-11-03T11:11:30;18.50;99.90
44990;DHT22;30723;51.206;3.326;2022-11-03T11:14:21;18.20;99.90
44990;DHT22;30723;51.206;3.326;2022-11-03T11:16:54;17.80;99.90
44990;DHT22;30723;51.206;3.326;2022-11-03T11:19:22;17.40;99.90
44990;DHT22;30723;51.206;3.326;2022-11-03T11:21:59;17.20;99.90
44990;DHT22;30723;51.206;3.326;2022-11-03T11:30:03;18.90;99.90
44990;DHT22;30723;51.206;3.326;2022-11-03T11:35:11;19.80;99.90
44990;DHT22;30723;51.206;3.326;2022-11-03T11:37:42;20.30;99.90
44990;DHT22;30723;51.206;3.326;2022-11-03T11:48:34;20.60;99.90
44990;DHT22;30723;51.206;3.326;2022-11-03T11:51:01;20.50;99.90
44990;DHT22;30723;51.206;3.326;2022-11-03T11:53:40;20.60;99.90
44990;DHT22;30723;51.206;3.326;2022-11-03T11:56:12;20.40;99.90
44990;DHT22;30723;51.206;3.326;2022-11-03T11:58:49;19.70;99.90
44990;DHT22;30723;51.206;3.326;2022-11-03T12:03:50;18.60;99.90
44990;DHT22;30723;51.206;3.326;2022-11-03T12:06:30;18.10;99.90
44990;DHT22;30723;51.206;3.326;2022-11-03T12:09:04;17.70;99.90
44990;DHT22;30723;51.206;3.326;2022-11-03T12:12:00;17.50;99.90
44990;DHT22;30723;51.206;3.326;2022-11-03T12:14:40;17.20;99.90
44990;DHT22;30723;51.206;3.326;2022-11-03T12:19:53;17.20;99.90
44990;DHT22;30723;51.206;3.326;2022-11-03T12:30:13;17.10;99.90
44990;DHT22;30723;51.206;3.326;2022-11-03T12:32:39;17.00;99.90
44990;DHT22;30723;51.206;3.326;2022-11-03T12:35:08;16.90;99.90
44990;DHT22;30723;51.206;3.326;2022-11-03T12:37:35;17.00;99.90
44990;DHT22;30723;51.206;3.326;2022-11-03T12:40:03;17.00;99.90
44990;DHT22;30723;51.206;3.326;2022-11-03T12:42:29;17.00;99.90
44990;DHT22;30723;51.206;3.326;2022-11-03T12:44:55;17.00;99.90
44990;DHT22;30723;51.206;3.326;2022-11-03T12:47:21;17.10;99.90
44990;DHT22;30723;51.206;3.326;2022-11-03T12:49:47;17.10;99.90
44990;DHT22;30723;51.206;3.326;2022-11-03T12:52:13;17.00;99.90
44990;DHT22;30723;51.206;3.326;2022-11-03T12:54:40;17.00;99.90
44990;DHT22;30723;51.206;3.326;2022-11-03T12:57:06;17.00;99.90
44990;DHT22;30723;51.206;3.326;2022-11-03T12:59:33;16.90;99.90
44990;DHT22;30723;51.206;3.326;2022-11-03T13:01:58;16.70;99.90
44990;DHT22;30723;51.206;3.326;2022-11-03T13:04:25;16.50;99.90
44990;DHT22;30723;51.206;3.326;2022-11-03T13:06:52;16.40;99.90
44990;DHT22;30723;51.206;3.326;2022-11-03T13:09:18;16.30;99.90
44990;DHT22;30723;51.206;3.326;2022-11-03T13:11:45;16.30;99.90
44990;DHT22;30723;51.206;3.326;2022-11-03T13:14:29;16.20;99.90
44990;DHT22;30723;51.206;3.326;2022-11-03T13:16:56;16.20;99.90
44990;DHT22;30723;51.206;3.326;2022-11-03T13:19:22;16.20;99.90
44990;DHT22;30723;51.206;3.326;2022-11-03T13:21:49;16.30;99.90
44990;DHT22;30723;51.206;3.326;2022-11-03T13:24:16;16.40;99.90
44990;DHT22;30723;51.206;3.326;2022-11-03T13:26:42;16.60;99.90
44990;DHT22;30723;51.206;3.326;2022-11-03T13:29:08;16.70;99.90
44990;DHT22;30723;51.206;3.326;2022-11-03T13:31:33;16.80;99.90
44990;DHT22;30723;51.206;3.326;2022-11-03T13:34:01;16.90;99.90
44990;DHT22;30723;51.206;3.326;2022-11-03T13:36:28;16.80;99.90
44990;DHT22;30723;51.206;3.326;2022-11-03T13:38:55;16.90;99.90
44990;DHT22;30723;51.206;3.326;2022-11-03T13:41:21;17.00;99.90
44990;DHT22;30723;51.206;3.326;2022-11-03T13:43:48;16.90;99.90
44990;DHT22;30723;51.206;3.326;2022-11-03T13:46:14;16.90;99.90
44990;DHT22;30723;51.206;3.326;2022-11-03T13:48:41;16.90;99.90
44990;DHT22;30723;51.206;3.326;2022-11-03T13:51:07;16.90;99.90
44990;DHT22;30723;51.206;3.326;2022-11-03T13:53:37;16.90;99.90
44990;DHT22;30723;51.206;3.326;2022-11-03T13:56:04;16.70;99.90
44990;DHT22;30723;51.206;3.326;2022-11-03T13:58:30;16.70;99.90
44990;DHT22;30723;51.206;3.326;2022-11-03T14:00:56;16.60;99.90
44990;DHT22;30723;51.206;3.326;2022-11-03T14:03:23;16.40;99.90
44990;DHT22;30723;51.206;3.326;2022-11-03T14:05:50;16.30;99.90
44990;DHT22;30723;51.206;3.326;2022-11-03T14:08:17;16.20;99.90
44990;DHT22;30723;51.206;3.326;2022-11-03T14:10:44;16.20;99.90
44990;DHT22;30723;51.206;3.326;2022-11-03T14:13:10;16.20;99.90
44990;DHT22;30723;51.206;3.326;2022-11-03T14:15:37;16.20;99.90
44990;DHT22;30723;51.206;3.326;2022-11-03T14:18:05;16.20;99.90
44990;DHT22;30723;51.206;3.326;2022-11-03T14:20:31;16.20;99.90
44990;DHT22;30723;51.206;3.326;2022-11-03T14:22:57;16.10;99.90
44990;DHT22;30723;51.206;3.326;2022-11-03T14:25:24;16.00;99.90
44990;DHT22;30723;51.206;3.326;2022-11-03T14:27:50;15.90;99.90
44990;DHT22;30723;51.206;3.326;2022-11-03T14:30:17;15.90;99.90
44990;DHT22;30723;51.206;3.326;2022-11-03T14:32:44;15.80;99.90
44990;DHT22;30723;51.206;3.326;2022-11-03T14:35:10;15.80;99.90
44990;DHT22;30723;51.206;3.326;2022-11-03T14:37:37;15.70;99.90
44990;DHT22;30723;51.206;3.326;2022-11-03T14:40:06;15.70;99.90
44990;DHT22;30723;51.206;3.326;2022-11-03T14:42:33;15.60;99.90
44990;DHT22;30723;51.206;3.326;2022-11-03T14:45:00;15.50;99.90
44990;DHT22;30723;51.206;3.326;2022-11-03T14:47:27;15.50;99.90
44990;DHT22;30723;51.206;3.326;2022-11-03T14:49:56;15.50;99.90
44990;DHT22;30723;51.206;3.326;2022-11-03T14:52:23;15.40;99.90
44990;DHT22;30723;51.206;3.326;2022-11-03T14:54:50;15.20;99.90
44990;DHT22;30723;51.206;3.326;2022-11-03T14:57:17;15.00;99.90
44990;DHT22;30723;51.206;3.326;2022-11-03T14:59:43;14.90;99.90
44990;DHT22;30723;51.206;3.326;2022-11-03T15:02:09;14.60;99.90
44990;DHT22;30723;51.206;3.326;2022-11-03T15:04:35;14.40;99.90
44990;DHT22;30723;51.206;3.326;2022-11-03T15:07:02;14.20;99.90
44990;DHT22;30723;51.206;3.326;2022-11-03T15:09:28;14.10;99.90
44990;DHT22;30723;51.206;3.326;2022-11-03T15:11:55;13.90;99.90
44990;DHT22;30723;51.206;3.326;2022-11-03T15:14:21;13.80;99.90
44990;DHT22;30723;51.206;3.326;2022-11-03T15:16:48;13.60;99.90
44990;DHT22;30723;51.206;3.326;2022-11-03T15:19:14;13.50;99.90
44990;DHT22;30723;51.206;3.326;2022-11-03T15:21:40;13.40;99.90
44990;DHT22;30723;51.206;3.326;2022-11-03T15:24:07;13.40;99.90
44990;DHT22;30723;51.206;3.326;2022-11-03T15:26:34;13.30;99.90
44990;DHT22;30723;51.206;3.326;2022-11-03T15:29:00;13.30;99.90
44990;DHT22;30723;51.206;3.326;2022-11-03T15:31:26;13.40;99.90
44990;DHT22;30723;51.206;3.326;2022-11-03T15:33:52;13.40;99.90
44990;DHT22;30723;51.206;3.326;2022-11-03T15:36:18;13.30;99.90
44990;DHT22;30723;51.206;3.326;2022-11-03T15:38:43;13.30;99.90
44990;DHT22;30723;51.206;3.326;2022-11-03T15:41:09;13.30;99.90
44990;DHT22;30723;51.206;3.326;2022-11-03T15:43:46;13.20;99.90
44990;DHT22;30723;51.206;3.326;2022-11-03T15:46:12;13.20;99.90
44990;DHT22;30723;51.206;3.326;2022-11-03T15:48:38;13.20;99.90
44990;DHT22;30723;51.206;3.326;2022-11-03T15:51:05;13.20;99.90
44990;DHT22;30723;51.206;3.326;2022-11-03T15:53:31;13.20;99.90
44990;DHT22;30723;51.206;3.326;2022-11-03T15:55:57;13.20;99.90
44990;DHT22;30723;51.206;3.326;2022-11-03T15:58:22;13.10;99.90
44990;DHT22;30723;51.206;3.326;2022-11-03T16:00:49;13.00;99.90
44990;DHT22;30723;51.206;3.326;2022-11-03T16:03:15;13.10;99.90
44990;DHT22;30723;51.206;3.326;2022-11-03T16:05:42;13.10;99.90
44990;DHT22;30723;51.206;3.326;2022-11-03T16:08:08;13.00;99.90
44990;DHT22;30723;51.206;3.326;2022-11-03T16:10:35;13.00;99.90
44990;DHT22;30723;51.206;3.326;2022-11-03T16:13:01;13.00;99.90
44990;DHT22;30723;51.206;3.326;2022-11-03T16:15:28;13.00;99.90
44990;DHT22;30723;51.206;3.326;2022-11-03T16:17:55;13.00;99.90
44990;DHT22;30723;51.206;3.326;2022-11-03T16:20:30;13.00;99.90
44990;DHT22;30723;51.206;3.326;2022-11-03T16:22:57;13.10;99.90
44990;DHT22;30723;51.206;3.326;2022-11-03T16:25:23;13.10;99.90
44990;DHT22;30723;51.206;3.326;2022-11-03T16:27:50;13.10;99.90
44990;DHT22;30723;51.206;3.326;2022-11-03T16:30:17;13.10;99.90
44990;DHT22;30723;51.206;3.326;2022-11-03T16:32:43;13.10;99.90
44990;DHT22;30723;51.206;3.326;2022-11-03T16:35:10;13.10;99.90
44990;DHT22;30723;51.206;3.326;2022-11-03T16:37:36;13.10;99.90
44990;DHT22;30723;51.206;3.326;2022-11-03T16:40:03;13.10;99.90
44990;DHT22;30723;51.206;3.326;2022-11-03T16:42:30;13.10;99.90
44990;DHT22;30723;51.206;3.326;2022-11-03T16:45:05;13.10;99.90
44990;DHT22;30723;51.206;3.326;2022-11-03T16:47:31;13.10;99.90
44990;DHT22;30723;51.206;3.326;2022-11-03T16:49:57;13.10;99.90
44990;DHT22;30723;51.206;3.326;2022-11-03T16:52:24;13.10;99.90
44990;DHT22;30723;51.206;3.326;2022-11-03T16:54:49;13.00;99.90
44990;DHT22;30723;51.206;3.326;2022-11-03T16:57:16;13.00;99.90
44990;DHT22;30723;51.206;3.326;2022-11-03T16:59:43;13.10;99.90
44990;DHT22;30723;51.206;3.326;2022-11-03T17:02:09;13.00;99.90
44990;DHT22;30723;51.206;3.326;2022-11-03T17:04:34;13.00;99.90